Time;durP1;ratioP1;P1;durP2;ratioP2;P2;SDS_P1;SDS_P2;PMS_P1;PMS_P2;Temp;Humidity;BMP_temperature;BMP_pressure;BME280_temperature;BME280_humidity;BME280_pressure;Samples;Min_cycle;Max_cycle;Signal;HPM_P1;HPM_P2
2022/12/04 00:01:57;;;;;;;40.60;15.30;;;;;;;;;;6273782;22;20170;-92
2022/12/04 00:05:02;;;;;;;35.00;14.70;;;;;;;;;;6271400;22;20211;-92
2022/12/04 00:08:07;;;;;;;33.73;14.77;;;;;;;;;;6272999;22;20178;-91
2022/12/04 00:11:14;;;;;;;37.27;15.30;;;;;;;;;;6273129;22;20269;-92
2022/12/04 00:14:20;;;;;;;46.03;15.03;;;;;;;;;;6272276;22;20166;-92
2022/12/04 00:17:25;;;;;;;63.30;15.70;;;;;;;;;;6272739;22;20208;-92
2022/12/04 00:20:30;;;;;;;57.47;17.07;;;;;;;;;;6272086;22;20225;-92
2022/12/04 00:23:36;;;;;;;40.60;15.57;;;;;;;;;;6273427;22;20157;-91
2022/12/04 00:26:43;;;;;;;41.67;14.53;;;;;;;;;;6274068;22;20240;-92
2022/12/04 00:29:48;;;;;;;41.83;14.90;;;;;;;;;;6271623;22;20150;-93
2022/12/04 00:32:52;;;;;;;45.67;15.07;;;;;;;;;;6273828;22;20173;-91
2022/12/04 00:35:58;;;;;;;54.07;14.33;;;;;;;;;;6273181;22;20262;-91
2022/12/04 00:39:04;;;;;;;33.97;13.43;;;;;;;;;;6273808;22;20161;-91
2022/12/04 00:42:11;;;;;;;46.03;14.50;;;;;;;;;;6273089;22;20205;-91
2022/12/04 00:45:16;;;;;;;63.47;15.27;;;;;;;;;;6275894;22;20632;-92
2022/12/04 00:48:22;;;;;;;55.10;15.10;;;;;;;;;;6274187;22;20191;-91
2022/12/04 00:51:27;;;;;;;57.87;14.83;;;;;;;;;;6273719;22;20174;-91
2022/12/04 00:54:32;;;;;;;33.47;13.30;;;;;;;;;;6271964;22;20209;-91
2022/12/04 00:57:39;;;;;;;35.50;12.87;;;;;;;;;;6274067;22;20203;-91
2022/12/04 01:00:44;;;;;;;55.73;13.30;;;;;;;;;;6273150;22;20177;-92
2022/12/04 01:03:49;;;;;;;54.03;14.07;;;;;;;;;;6272665;22;20222;-91
2022/12/04 01:06:55;;;;;;;69.47;14.27;;;;;;;;;;6274782;22;20165;-91
2022/12/04 01:10:00;;;;;;;60.63;15.23;;;;;;;;;;6276220;22;20161;-93
2022/12/04 01:13:07;;;;;;;35.30;13.80;;;;;;;;;;6277659;22;20205;-91
2022/12/04 01:16:16;;;;;;;41.77;13.27;;;;;;;;;;6275588;22;20683;-90
2022/12/04 01:19:25;;;;;;;41.60;14.23;;;;;;;;;;6277349;22;20596;-92
2022/12/04 01:22:30;;;;;;;45.40;14.67;;;;;;;;;;6276539;22;20242;-91
2022/12/04 01:25:35;;;;;;;43.57;14.83;;;;;;;;;;6277361;22;20165;-91
2022/12/04 01:28:42;;;;;;;37.53;13.13;;;;;;;;;;6275958;22;20178;-91
2022/12/04 01:31:47;;;;;;;36.50;14.23;;;;;;;;;;6274261;22;20228;-92
2022/12/04 01:34:52;;;;;;;33.57;13.87;;;;;;;;;;6275188;22;20168;-91
2022/12/04 01:38:00;;;;;;;36.17;13.90;;;;;;;;;;6275127;22;20237;-93
2022/12/04 01:41:08;;;;;;;33.23;13.63;;;;;;;;;;6273980;22;20209;-91
2022/12/04 01:44:16;;;;;;;48.53;13.27;;;;;;;;;;6274488;22;20289;-92
2022/12/04 01:47:21;;;;;;;44.27;13.30;;;;;;;;;;6273656;22;20216;-93
2022/12/04 01:50:26;;;;;;;35.20;12.73;;;;;;;;;;6293812;22;20191;-92
2022/12/04 01:53:32;;;;;;;85.87;13.80;;;;;;;;;;6274972;22;20640;-92
2022/12/04 01:56:39;;;;;;;36.40;12.27;;;;;;;;;;6275296;22;20142;-92
2022/12/04 01:59:48;;;;;;;35.30;12.47;;;;;;;;;;6274352;22;20205;-91
2022/12/04 02:02:53;;;;;;;31.10;11.50;;;;;;;;;;6273770;22;20157;-91
2022/12/04 02:05:59;;;;;;;40.67;12.43;;;;;;;;;;6273441;22;20210;-93
2022/12/04 02:09:05;;;;;;;26.83;10.03;;;;;;;;;;6274336;22;20173;-93
2022/12/04 02:12:15;;;;;;;29.63;10.83;;;;;;;;;;6272499;22;20624;-93
2022/12/04 02:15:23;;;;;;;21.33;10.43;;;;;;;;;;6271255;22;20170;-93
2022/12/04 02:18:32;;;;;;;22.57;10.43;;;;;;;;;;6272316;22;20157;-93
2022/12/04 02:21:41;;;;;;;21.30;10.33;;;;;;;;;;6272985;22;20318;-93
2022/12/04 02:24:52;;;;;;;21.23;10.50;;;;;;;;;;6272861;22;20170;-92
2022/12/04 02:28:04;;;;;;;24.60;9.83;;;;;;;;;;6273305;22;20223;-93
2022/12/04 02:31:13;;;;;;;27.93;9.73;;;;;;;;;;6272690;22;20174;-93
2022/12/04 02:34:22;;;;;;;19.10;9.70;;;;;;;;;;6272775;22;20166;-93
2022/12/04 02:37:30;;;;;;;21.07;9.47;;;;;;;;;;6273364;22;20632;-94
2022/12/04 02:40:40;;;;;;;24.97;8.27;;;;;;;;;;6271916;22;20186;-92
2022/12/04 02:43:49;;;;;;;15.27;8.63;;;;;;;;;;6272671;22;20174;-93
2022/12/04 02:46:56;;;;;;;23.27;9.73;;;;;;;;;;6272383;22;20248;-93
2022/12/04 02:50:03;;;;;;;24.80;9.80;;;;;;;;;;6273397;22;20178;-91
2022/12/04 02:53:10;;;;;;;20.77;10.00;;;;;;;;;;6274796;22;20173;-93
2022/12/04 02:56:18;;;;;;;21.57;10.07;;;;;;;;;;6273367;22;20496;-91
2022/12/04 02:59:27;;;;;;;19.10;9.87;;;;;;;;;;6274469;22;20154;-93
2022/12/04 03:02:34;;;;;;;27.70;10.87;;;;;;;;;;6273106;22;20161;-93
2022/12/04 03:05:41;;;;;;;23.37;9.83;;;;;;;;;;6273368;22;20605;-92
2022/12/04 03:08:47;;;;;;;29.00;10.00;;;;;;;;;;6274598;22;20165;-94
2022/12/04 03:11:56;;;;;;;20.50;9.43;;;;;;;;;;6275159;22;20181;-92
2022/12/04 03:15:03;;;;;;;22.97;10.13;;;;;;;;;;6271772;22;20165;-93
2022/12/04 15:20:21;;;;;;;6.00;3.80;;;;;;;;;;6200653;23;20187;-92
2022/12/04 15:26:48;;;;;;;8.18;4.07;;;;;;;;;;6182541;23;20168;-93
2022/12/04 15:29:57;;;;;;;7.60;4.10;;;;;;;;;;6186435;23;20177;-92
2022/12/04 15:36:43;;;;;;;8.98;4.10;;;;;;;;;;6177594;23;20197;-93
2022/12/04 15:39:49;;;;;;;7.28;4.20;;;;;;;;;;6158270;23;20681;-93
2022/12/04 15:42:55;;;;;;;8.80;4.90;;;;;;;;;;6157622;23;20208;-93
2022/12/04 15:46:02;;;;;;;8.57;4.68;;;;;;;;;;6174441;23;20252;-92
2022/12/04 15:49:16;;;;;;;11.68;4.65;;;;;;;;;;6157290;23;20163;-91
2022/12/04 15:52:32;;;;;;;8.88;4.60;;;;;;;;;;6156787;23;20628;-92
2022/12/04 15:55:40;;;;;;;8.45;4.80;;;;;;;;;;6172721;23;20156;-94
2022/12/04 15:58:54;;;;;;;10.77;6.07;;;;;;;;;;6155162;23;20244;-94
2022/12/04 16:02:11;;;;;;;8.18;4.63;;;;;;;;;;6173339;23;20168;-92
2022/12/04 16:05:28;;;;;;;8.90;4.93;;;;;;;;;;6172237;23;20153;-94
2022/12/04 16:08:35;;;;;;;9.38;5.72;;;;;;;;;;6172786;23;20230;-93
2022/12/04 16:11:41;;;;;;;9.45;4.85;;;;;;;;;;6155501;23;20196;-93
2022/12/04 16:14:46;;;;;;;23.05;10.45;;;;;;;;;;6153472;23;20172;-94
2022/12/04 16:17:52;;;;;;;8.20;5.15;;;;;;;;;;6155534;23;20196;-93
2022/12/04 16:20:57;;;;;;;12.93;5.90;;;;;;;;;;6172948;23;20222;-94
2022/12/04 16:24:05;;;;;;;18.95;6.95;;;;;;;;;;6154115;23;20221;-92
2022/12/04 16:27:13;;;;;;;8.27;4.95;;;;;;;;;;6170177;23;20618;-93
2022/12/04 16:30:18;;;;;;;9.90;5.78;;;;;;;;;;6152447;23;20172;-92
2022/12/04 16:33:24;;;;;;;10.93;6.35;;;;;;;;;;6168225;23;20188;-92
2022/12/04 16:36:33;;;;;;;8.43;4.70;;;;;;;;;;6158420;23;20148;-92
2022/12/04 16:39:40;;;;;;;9.60;5.05;;;;;;;;;;6177505;23;20214;-91
2022/12/04 16:42:46;;;;;;;9.75;5.32;;;;;;;;;;6174151;23;20168;-93
2022/12/04 16:45:52;;;;;;;10.43;5.13;;;;;;;;;;6171555;23;20195;-92
2022/12/04 16:49:02;;;;;;;10.35;5.55;;;;;;;;;;6168404;23;20168;-90
2022/12/04 16:52:08;;;;;;;10.68;5.63;;;;;;;;;;6171768;23;20270;-92
2022/12/04 16:55:18;;;;;;;10.50;5.10;;;;;;;;;;6169815;23;20164;-94
2022/12/04 16:58:23;;;;;;;8.55;5.22;;;;;;;;;;6171714;23;20165;-93
2022/12/04 17:01:30;;;;;;;9.55;5.38;;;;;;;;;;6174109;23;20223;-91
2022/12/04 17:04:36;;;;;;;13.15;6.88;;;;;;;;;;6171525;23;20164;-92
2022/12/04 17:07:41;;;;;;;8.38;4.95;;;;;;;;;;6168925;23;20172;-92
2022/12/04 17:10:48;;;;;;;11.57;6.20;;;;;;;;;;6169397;23;20159;-91
2022/12/04 17:13:53;;;;;;;12.93;6.25;;;;;;;;;;6170646;23;20173;-92
2022/12/04 17:16:58;;;;;;;10.95;5.65;;;;;;;;;;6170292;23;20224;-92
2022/12/04 17:20:04;;;;;;;17.98;8.68;;;;;;;;;;6170156;23;20172;-92
2022/12/04 17:23:10;;;;;;;9.43;5.10;;;;;;;;;;6169341;23;20237;-91
2022/12/04 17:26:16;;;;;;;9.25;5.13;;;;;;;;;;6153154;23;20160;-92
2022/12/04 17:29:22;;;;;;;11.23;5.85;;;;;;;;;;6168140;23;20168;-92
2022/12/04 17:32:27;;;;;;;12.20;6.70;;;;;;;;;;6151797;23;20204;-93
2022/12/04 17:35:33;;;;;;;14.50;7.55;;;;;;;;;;6168884;23;20168;-92
2022/12/04 17:38:39;;;;;;;16.10;8.18;;;;;;;;;;6167659;23;20212;-91
2022/12/04 17:41:46;;;;;;;20.88;10.88;;;;;;;;;;6153195;23;20156;-92
2022/12/04 17:44:51;;;;;;;15.25;8.40;;;;;;;;;;6153401;23;20160;-90
2022/12/04 17:47:57;;;;;;;15.05;8.20;;;;;;;;;;6171124;23;20251;-93
2022/12/04 17:51:07;;;;;;;12.52;6.32;;;;;;;;;;6170482;23;20215;-92
2022/12/04 17:54:12;;;;;;;34.90;16.55;;;;;;;;;;6170308;23;20176;-92
2022/12/04 17:57:20;;;;;;;16.90;8.43;;;;;;;;;;6152845;23;20218;-92
2022/12/04 18:00:25;;;;;;;27.17;9.15;;;;;;;;;;6153046;23;20630;-92
2022/12/04 18:03:31;;;;;;;23.30;9.73;;;;;;;;;;6170329;23;20230;-91
2022/12/04 18:06:37;;;;;;;19.10;8.57;;;;;;;;;;6173174;23;20196;-93
2022/12/04 18:09:42;;;;;;;19.83;9.50;;;;;;;;;;6173424;23;20798;-94
2022/12/04 18:12:49;;;;;;;51.00;23.17;;;;;;;;;;6154059;23;20192;-94
2022/12/04 18:15:56;;;;;;;23.17;8.98;;;;;;;;;;6154933;23;20181;-93
2022/12/04 18:19:03;;;;;;;21.92;10.80;;;;;;;;;;6174162;23;20225;-93
2022/12/04 18:22:09;;;;;;;21.95;8.60;;;;;;;;;;6159628;23;20197;-94
2022/12/04 18:25:21;;;;;;;21.23;8.70;;;;;;;;;;6179606;23;20173;-92
2022/12/04 18:28:35;;;;;;;24.13;11.30;;;;;;;;;;6179671;23;20635;-93
2022/12/04 18:31:53;;;;;;;22.73;10.35;;;;;;;;;;6157530;23;20257;-93
2022/12/04 18:34:59;;;;;;;17.40;9.07;;;;;;;;;;6174247;23;20208;-93
2022/12/04 18:38:06;;;;;;;20.05;9.60;;;;;;;;;;6177047;23;20252;-92
2022/12/04 18:41:15;;;;;;;15.32;7.38;;;;;;;;;;6177249;23;20165;-94
2022/12/04 18:44:22;;;;;;;24.20;10.82;;;;;;;;;;6175163;23;20149;-93
2022/12/04 18:47:30;;;;;;;21.60;9.90;;;;;;;;;;6160259;23;20214;-92
2022/12/04 18:50:39;;;;;;;21.60;10.02;;;;;;;;;;6176571;23;20217;-94
2022/12/04 18:57:07;;;;;;;14.55;6.80;;;;;;;;;;6176660;23;20204;-94
2022/12/04 19:00:16;;;;;;;12.68;6.50;;;;;;;;;;6159677;23;20153;-93
2022/12/04 19:03:22;;;;;;;22.67;9.00;;;;;;;;;;6175679;23;20193;-93
2022/12/04 19:06:31;;;;;;;18.13;8.60;;;;;;;;;;6158047;23;20211;-94
2022/12/04 19:09:40;;;;;;;17.52;9.18;;;;;;;;;;6176398;23;20176;-94
2022/12/04 19:12:47;;;;;;;27.73;12.85;;;;;;;;;;6177680;23;20199;-92
2022/12/04 19:16:08;;;;;;;17.52;10.20;;;;;;;;;;6161667;23;20160;-93
2022/12/04 19:19:17;;;;;;;22.10;10.70;;;;;;;;;;6159609;23;20201;-94
2022/12/04 19:22:25;;;;;;;15.82;7.07;;;;;;;;;;6159508;23;20687;-94
2022/12/04 19:25:33;;;;;;;18.50;8.27;;;;;;;;;;6175209;23;20220;-94
2022/12/04 19:28:39;;;;;;;24.58;9.85;;;;;;;;;;6174669;23;20193;-94
2022/12/04 19:31:45;;;;;;;27.45;12.13;;;;;;;;;;6172322;23;20172;-94
2022/12/04 19:34:54;;;;;;;23.38;10.20;;;;;;;;;;6173075;23;20217;-94
2022/12/04 20:10:48;;;;;;;19.40;9.33;;;;;;;;;;6176322;23;20160;-93
2022/12/04 20:13:54;;;;;;;19.37;9.00;;;;;;;;;;6156773;23;20253;-91
2022/12/04 20:17:04;;;;;;;23.13;9.70;;;;;;;;;;6175359;23;20168;-95
2022/12/04 20:20:11;;;;;;;22.07;10.60;;;;;;;;;;6156644;23;20615;-92
2022/12/04 20:26:46;;;;;;;25.70;11.03;;;;;;;;;;6157663;23;20181;-93
2022/12/04 20:29:52;;;;;;;24.07;10.63;;;;;;;;;;6174064;23;20172;-92
2022/12/04 20:33:00;;;;;;;28.80;12.23;;;;;;;;;;6157970;23;20223;-93
2022/12/04 20:36:06;;;;;;;24.80;10.47;;;;;;;;;;6173940;23;20164;-93
2022/12/04 20:39:13;;;;;;;24.70;10.97;;;;;;;;;;6178480;23;20176;-94
2022/12/04 20:42:21;;;;;;;26.30;11.47;;;;;;;;;;6175022;23;20168;-92
2022/12/04 20:45:27;;;;;;;23.27;10.47;;;;;;;;;;6174686;23;20241;-94
2022/12/04 20:48:33;;;;;;;24.87;10.57;;;;;;;;;;6175113;23;20169;-93
2022/12/04 20:51:40;;;;;;;26.80;10.97;;;;;;;;;;6177265;23;20148;-93
2022/12/04 20:54:45;;;;;;;24.87;11.07;;;;;;;;;;6175538;23;20193;-94
2022/12/04 20:57:52;;;;;;;31.43;11.67;;;;;;;;;;6175942;23;20172;-92
2022/12/04 21:00:58;;;;;;;26.23;11.33;;;;;;;;;;6176281;23;20156;-92
2022/12/04 21:04:08;;;;;;;26.77;12.70;;;;;;;;;;6172558;23;20193;-93
2022/12/04 21:07:14;;;;;;;30.97;12.90;;;;;;;;;;6170504;23;20621;-93
2022/12/04 21:10:20;;;;;;;24.90;11.40;;;;;;;;;;6154231;23;20222;-93
2022/12/04 21:16:52;;;;;;;28.87;13.13;;;;;;;;;;6170653;23;20233;-94
2022/12/04 21:19:57;;;;;;;30.20;12.30;;;;;;;;;;6170697;23;20161;-93
2022/12/04 21:23:03;;;;;;;30.33;11.67;;;;;;;;;;6170286;23;20180;-93
2022/12/04 21:26:10;;;;;;;30.77;11.97;;;;;;;;;;6172463;23;20197;-93
2022/12/04 21:29:17;;;;;;;25.47;11.13;;;;;;;;;;6172336;23;20168;-92
2022/12/04 21:32:23;;;;;;;23.80;10.80;;;;;;;;;;6174649;23;20193;-94
2022/12/04 21:35:31;;;;;;;30.00;12.17;;;;;;;;;;6174101;23;20223;-94
2022/12/04 21:38:38;;;;;;;27.33;12.43;;;;;;;;;;6170251;23;20232;-93
2022/12/04 21:45:08;;;;;;;30.67;12.53;;;;;;;;;;6170660;23;20172;-93
2022/12/04 21:48:40;;;;;;;28.53;11.73;;;;;;;;;;6169539;23;20189;-93
2022/12/04 21:51:47;;;;;;;27.80;12.10;;;;;;;;;;6168187;23;20156;-94
2022/12/04 21:54:52;;;;;;;36.37;13.13;;;;;;;;;;6170955;23;20168;-92
2022/12/04 21:57:58;;;;;;;35.73;13.57;;;;;;;;;;6170636;23;20172;-93
2022/12/04 22:01:10;;;;;;;33.43;13.23;;;;;;;;;;6171978;23;20274;-92
2022/12/04 22:04:15;;;;;;;27.43;12.97;;;;;;;;;;6152567;23;20233;-93
2022/12/04 22:07:20;;;;;;;26.37;11.57;;;;;;;;;;6169376;23;20152;-94
2022/12/04 22:10:26;;;;;;;32.27;12.53;;;;;;;;;;6172236;23;20184;-93
2022/12/04 22:13:31;;;;;;;30.97;13.03;;;;;;;;;;6170883;23;20745;-92
2022/12/04 22:16:38;;;;;;;29.10;11.80;;;;;;;;;;6172502;23;20212;-93
2022/12/04 22:19:44;;;;;;;30.10;13.27;;;;;;;;;;6173364;23;20180;-93
2022/12/04 22:22:50;;;;;;;29.90;11.97;;;;;;;;;;6174869;23;20161;-92
2022/12/04 22:25:56;;;;;;;34.37;14.20;;;;;;;;;;6156048;23;20276;-92
2022/12/04 22:29:01;;;;;;;34.87;14.50;;;;;;;;;;6174172;23;20168;-94
2022/12/04 22:32:08;;;;;;;42.83;16.03;;;;;;;;;;6155607;23;20169;-93
2022/12/04 22:35:14;;;;;;;46.87;18.07;;;;;;;;;;6175041;23;20173;-95
2022/12/04 22:38:19;;;;;;;50.23;18.70;;;;;;;;;;6172690;23;20188;-91
2022/12/04 22:41:26;;;;;;;54.30;19.63;;;;;;;;;;6172335;23;20165;-93
2022/12/04 22:44:31;;;;;;;53.00;20.23;;;;;;;;;;6175261;23;20161;-92
2022/12/04 22:51:59;;;;;;;50.80;18.40;;;;;;;;;;6175735;23;20228;-93
2022/12/04 22:55:05;;;;;;;60.13;20.67;;;;;;;;;;6173983;23;20172;-92
2022/12/04 22:58:11;;;;;;;57.33;20.00;;;;;;;;;;6173039;23;20152;-92
2022/12/04 23:01:16;;;;;;;61.80;21.50;;;;;;;;;;6174247;23;20174;-92
2022/12/04 23:04:21;;;;;;;61.13;22.53;;;;;;;;;;6155609;23;20184;-94
2022/12/04 23:07:29;;;;;;;66.53;23.23;;;;;;;;;;6171883;23;20296;-93
2022/12/04 23:10:37;;;;;;;60.27;20.47;;;;;;;;;;6174192;23;20173;-93
2022/12/04 23:13:43;;;;;;;66.23;21.43;;;;;;;;;;6173966;23;20215;-91
2022/12/04 23:16:48;;;;;;;71.27;23.40;;;;;;;;;;6157252;23;20159;-93
2022/12/04 23:19:55;;;;;;;67.57;23.13;;;;;;;;;;6175575;23;20152;-92
2022/12/04 23:23:02;;;;;;;80.90;24.10;;;;;;;;;;6156821;23;20167;-92
2022/12/04 23:26:08;;;;;;;68.73;22.73;;;;;;;;;;6174400;23;20156;-92
2022/12/04 23:29:15;;;;;;;68.97;22.77;;;;;;;;;;6157230;23;20181;-93
2022/12/04 23:32:21;;;;;;;69.03;22.67;;;;;;;;;;6174306;23;20192;-93
2022/12/04 23:35:27;;;;;;;67.07;22.80;;;;;;;;;;6174030;23;20168;-92
2022/12/04 23:38:35;;;;;;;67.13;21.80;;;;;;;;;;6173471;23;20169;-92
2022/12/04 23:41:41;;;;;;;63.77;21.87;;;;;;;;;;6174403;23;20164;-93
2022/12/04 23:44:47;;;;;;;57.53;19.43;;;;;;;;;;6172929;23;20615;-92
2022/12/04 23:47:52;;;;;;;58.00;20.50;;;;;;;;;;6172827;23;20169;-93
2022/12/04 23:50:57;;;;;;;61.63;21.10;;;;;;;;;;6171706;23;20256;-92
2022/12/04 23:54:05;;;;;;;57.93;20.50;;;;;;;;;;6172814;23;20247;-93
2022/12/04 23:57:10;;;;;;;60.40;21.77;;;;;;;;;;6172095;23;20250;-93
